Time;durP1;ratioP1;P1;durP2;ratioP2;P2;SDS_P1;SDS_P2;PMS_P1;PMS_P2;Temp;Humidity;BMP_temperature;BMP_pressure;BME280_temperature;BME280_humidity;BME280_pressure;Samples;Min_cycle;Max_cycle;Signal;HPM_P1;HPM_P2
2023/09/21 00:01:48;;;;;;;4.18;2.60;;;;;;;-145.68;100.00;73383.88;10432465;28;20215;-73
2023/09/21 00:06:49;;;;;;;4.28;2.40;;;;;;;-145.68;100.00;73307.91;10449747;28;20702;-73
2023/09/21 00:11:51;;;;;;;6.43;2.50;;;;;;;-145.68;100.00;73229.97;10449223;28;20184;-74
2023/09/21 00:16:51;;;;;;;5.15;1.90;;;;;;;-145.68;100.00;73108.06;10449710;28;20203;-73
2023/09/21 00:21:54;;;;;;;4.40;1.90;;;;;;;-145.68;100.00;73036.09;10449034;28;20452;-73
2023/09/21 00:26:57;;;;;;;4.30;1.80;;;;;;;-145.68;100.00;72980.13;10449103;28;20659;-73
2023/09/21 00:31:58;;;;;;;3.30;2.10;;;;;;;-145.68;100.00;72946.16;10447640;28;20311;-73
2023/09/21 00:36:58;;;;;;;3.38;1.90;;;;;;;-145.68;99.09;72938.16;10448663;28;20192;-73
2023/09/21 00:41:58;;;;;;;2.85;1.63;;;;;;;-145.68;97.38;72920.19;10430719;28;20220;-73
2023/09/21 00:47:00;;;;;;;7.20;2.03;;;;;;;-145.68;97.10;72922.19;10429851;28;20643;-73
2023/09/21 00:52:00;;;;;;;3.08;1.90;;;;;;;-145.68;96.06;72904.19;10429569;28;20626;-73
2023/09/21 00:57:01;;;;;;;2.67;1.83;;;;;;;-145.68;96.16;72916.19;10447996;28;20188;-73
2023/09/21 01:02:03;;;;;;;2.97;2.22;;;;;;;-145.68;96.11;72902.19;10446353;28;20227;-73
2023/09/21 01:07:12;;;;;;;2.08;1.88;;;;;;;-145.68;95.83;72880.22;10428954;28;20664;-73
2023/09/21 01:12:13;;;;;;;3.38;1.70;;;;;;;-145.68;94.87;72878.22;10447303;28;20269;-73
2023/09/21 01:17:14;;;;;;;4.22;1.80;;;;;;;-145.68;95.73;72874.22;10429402;28;20675;-73
2023/09/21 01:22:15;;;;;;;4.50;2.47;;;;;;;-145.68;95.16;72880.22;10429025;28;20223;-73
2023/09/21 01:27:17;;;;;;;6.53;1.70;;;;;;;-145.68;95.87;72880.22;10428579;28;20737;-73
2023/09/21 01:32:18;;;;;;;6.38;1.90;;;;;;;-145.68;95.52;72864.22;10428235;28;20188;-73
2023/09/21 01:37:21;;;;;;;3.63;1.90;;;;;;;-145.68;94.45;72852.25;10446800;28;20589;-73
2023/09/21 01:42:23;;;;;;;4.40;1.98;;;;;;;-145.68;94.56;72838.25;10427970;28;20216;-73
2023/09/21 01:47:23;;;;;;;5.95;1.80;;;;;;;-145.68;92.25;72808.28;10446093;28;20235;-74
2023/09/21 01:52:24;;;;;;;2.00;1.80;;;;;;;-145.68;89.83;72778.28;10445919;28;20188;-73
2023/09/21 01:57:25;;;;;;;3.15;2.10;;;;;;;-145.68;87.99;72752.31;10446632;28;20639;-73
2023/09/21 02:02:26;;;;;;;4.78;1.83;;;;;;;-145.68;86.36;72738.31;10445404;28;20212;-73
2023/09/21 02:07:28;;;;;;;5.55;1.90;;;;;;;-145.68;85.10;72730.34;10428146;28;20188;-73
2023/09/21 02:12:35;;;;;;;2.97;1.90;;;;;;;-145.68;84.76;72724.34;10428017;28;20279;-73
2023/09/21 02:17:39;;;;;;;5.25;2.03;;;;;;;-145.68;83.83;72710.34;10445798;28;20591;-73
2023/09/21 02:22:45;;;;;;;6.82;2.05;;;;;;;-145.68;83.49;72696.34;10427473;28;20215;-73
2023/09/21 02:27:49;;;;;;;5.13;1.98;;;;;;;-145.68;83.74;72710.34;10427329;28;20543;-73
2023/09/21 02:32:51;;;;;;;1.83;1.67;;;;;;;-145.68;85.45;72728.34;10427122;28;20310;-73
2023/09/21 02:37:52;;;;;;;3.13;1.92;;;;;;;-145.68;86.99;72740.31;10427537;28;20567;-73
2023/09/21 02:42:53;;;;;;;2.88;1.85;;;;;;;-145.68;88.55;72748.31;10427409;28;20618;-73
2023/09/21 02:47:54;;;;;;;3.92;1.98;;;;;;;-145.68;90.07;72768.31;10444192;28;20271;-73
2023/09/21 02:53:01;;;;;;;2.88;1.73;;;;;;;-145.68;91.43;72766.31;10445371;28;20226;-73
2023/09/21 02:58:10;;;;;;;3.63;2.55;;;;;;;-145.68;92.86;72768.31;10451582;28;20258;-73
2023/09/21 03:03:13;;;;;;;2.90;2.00;;;;;;;-145.68;94.52;72788.28;10434363;28;20247;-73
2023/09/21 03:08:15;;;;;;;5.97;2.58;;;;;;;-145.68;95.99;72784.28;10417912;28;20547;-73
2023/09/21 03:13:18;;;;;;;4.55;2.05;;;;;;;-145.68;96.55;72776.28;10424212;28;20188;-73
2023/09/21 03:18:20;;;;;;;2.53;1.95;;;;;;;-145.68;96.71;72768.31;10434096;28;20575;-73
2023/09/21 03:23:22;;;;;;;4.20;2.42;;;;;;;-145.68;96.22;72766.31;10433278;28;20216;-73
2023/09/21 03:28:24;;;;;;;6.53;2.45;;;;;;;-145.68;96.37;72756.31;10429441;28;20279;-73
2023/09/21 03:33:25;;;;;;;3.28;2.13;;;;;;;-145.68;95.07;72738.31;10421007;28;20184;-73
2023/09/21 03:38:26;;;;;;;5.75;2.20;;;;;;;-145.68;95.13;72752.31;10433052;28;20682;-73
2023/09/21 03:43:28;;;;;;;2.60;2.20;;;;;;;-145.68;95.58;72754.31;10431368;28;20222;-73
2023/09/21 03:48:35;;;;;;;3.90;2.10;;;;;;;-145.68;96.33;72762.31;10431389;28;20232;-73
2023/09/21 03:53:35;;;;;;;4.38;2.00;;;;;;;-145.68;97.83;72768.31;10435709;28;20656;-73
2023/09/21 03:58:35;;;;;;;9.50;2.53;;;;;;;-145.68;98.81;72776.28;10430826;28;20204;-73
2023/09/21 04:03:36;;;;;;;6.55;2.58;;;;;;;-145.68;98.00;72750.31;10429447;28;20219;-73
2023/09/21 04:08:37;;;;;;;6.55;2.58;;;;;;;-145.68;97.25;72730.34;10434248;28;20198;-73
2023/09/21 04:13:37;;;;;;;3.08;2.20;;;;;;;-145.68;96.52;72728.34;10448083;28;20278;-73
2023/09/21 04:18:38;;;;;;;3.72;2.42;;;;;;;-145.68;95.08;72712.34;10426372;28;20195;-73
2023/09/21 04:23:39;;;;;;;3.80;2.42;;;;;;;-145.68;94.96;72704.34;10448546;28;20228;-73
2023/09/21 04:28:39;;;;;;;4.45;2.38;;;;;;;-145.68;95.14;72704.34;10433801;28;20188;-73
2023/09/21 04:33:40;;;;;;;4.50;2.13;;;;;;;-145.68;96.21;72722.34;10441325;28;20183;-73
2023/09/21 04:38:42;;;;;;;6.65;2.30;;;;;;;-145.68;98.06;72730.34;10414582;28;20203;-73
2023/09/21 04:43:43;;;;;;;4.03;2.15;;;;;;;-145.68;98.74;72730.34;10430363;28;20666;-73
2023/09/21 04:48:44;;;;;;;3.70;2.53;;;;;;;-145.68;99.03;72720.34;10451063;28;20691;-73
2023/09/21 04:53:45;;;;;;;4.82;2.60;;;;;;;-145.68;98.69;72710.34;10443594;28;20687;-72
2023/09/21 04:58:46;;;;;;;7.15;2.65;;;;;;;-145.68;99.98;72724.34;10430306;28;20283;-73
2023/09/21 05:03:46;;;;;;;5.30;2.90;;;;;;;-145.68;100.00;72716.34;10413253;28;20216;-73
2023/09/21 05:08:48;;;;;;;8.55;3.60;;;;;;;-145.68;100.00;72718.34;10427247;28;20219;-73
2023/09/21 05:13:50;;;;;;;8.00;3.15;;;;;;;-145.68;100.00;72716.34;10447298;28;20191;-73
2023/09/21 05:18:51;;;;;;;4.65;3.83;;;;;;;-145.68;100.00;72712.34;10445126;28;20192;-73
2023/09/21 05:23:51;;;;;;;5.03;4.03;;;;;;;-145.68;100.00;72710.34;10442327;28;20626;-73
2023/09/21 05:28:52;;;;;;;4.80;4.30;;;;;;;-145.68;100.00;72700.34;10450547;28;20196;-73
2023/09/21 05:33:53;;;;;;;9.20;4.40;;;;;;;-145.68;100.00;72712.34;10446708;28;20180;-73
2023/09/21 05:38:53;;;;;;;7.35;4.55;;;;;;;-145.68;100.00;72718.34;10446187;28;20237;-73
2023/09/21 05:43:53;;;;;;;5.20;4.70;;;;;;;-145.68;100.00;72714.34;10452462;28;20231;-73
2023/09/21 05:48:54;;;;;;;7.80;4.97;;;;;;;-145.68;100.00;72704.34;10446182;28;20243;-73
2023/09/21 05:53:55;;;;;;;6.82;5.15;;;;;;;-145.68;100.00;72704.34;10442570;28;20198;-73
2023/09/21 05:58:56;;;;;;;7.88;5.40;;;;;;;-145.68;100.00;72692.38;10446359;28;20196;-73
2023/09/21 06:03:57;;;;;;;5.28;4.78;;;;;;;-145.68;100.00;72682.38;10449155;28;20227;-73
2023/09/21 06:08:57;;;;;;;5.45;4.78;;;;;;;-145.68;100.00;72588.44;10445276;28;20187;-73
2023/09/21 06:13:58;;;;;;;7.00;4.53;;;;;;;-145.68;95.17;72582.44;10445919;28;20188;-73
2023/09/21 06:18:58;;;;;;;6.80;4.68;;;;;;;-145.68;92.46;72540.50;10427852;28;20215;-73
2023/09/21 06:23:58;;;;;;;5.15;3.60;;;;;;;-145.68;87.59;72498.53;10448212;28;20238;-73
2023/09/21 06:28:59;;;;;;;5.35;3.88;;;;;;;-145.68;84.87;72452.56;10446420;28;20747;-74
2023/09/21 06:34:00;;;;;;;5.30;3.88;;;;;;;-145.68;83.18;72418.59;10453514;28;20968;-73
2023/09/21 06:39:00;;;;;;;6.25;3.53;;;;;;;-145.68;79.34;72324.69;10453139;28;20222;-74
2023/09/21 06:44:00;;;;;;;4.53;2.97;;;;;;;-145.68;75.76;72316.69;10456099;28;20242;-73
2023/09/21 06:49:03;;;;;;;3.67;3.35;;;;;;;-145.68;73.00;72246.75;10451248;28;20236;-73
2023/09/21 06:54:03;;;;;;;5.30;3.45;;;;;;;-145.68;72.69;72252.75;10452482;28;20188;-73
2023/09/21 06:59:06;;;;;;;4.43;2.67;;;;;;;-145.68;69.06;72174.81;10453816;28;20192;-74
2023/09/21 07:04:07;;;;;;;3.50;2.95;;;;;;;-145.68;65.91;72092.91;10453928;28;20594;-74
2023/09/21 07:09:09;;;;;;;4.63;2.90;;;;;;;-145.68;62.89;71993.00;10451810;28;20206;-74
2023/09/21 07:14:09;;;;;;;3.38;2.40;;;;;;;-145.68;59.99;71955.03;10451969;28;20346;-74
2023/09/21 07:19:10;;;;;;;2.53;2.33;;;;;;;-145.68;59.53;71943.03;10454859;28;20580;-74
2023/09/21 07:24:10;;;;;;;5.30;2.33;;;;;;;-145.68;55.96;71769.22;10433643;28;20706;-74
2023/09/21 07:29:10;;;;;;;5.07;2.40;;;;;;;-145.68;54.40;71737.25;10451952;28;20218;-74
2023/09/21 07:34:11;;;;;;;2.70;2.08;;;;;;;-145.68;53.71;71677.31;10450818;28;20203;-74
2023/09/21 07:39:11;;;;;;;3.25;2.13;;;;;;;-145.68;50.67;71579.41;10454678;28;20645;-74
2023/09/21 07:44:13;;;;;;;5.78;2.00;;;;;;;-145.68;47.14;71465.53;10450496;28;20235;-74
2023/09/21 07:49:15;;;;;;;5.20;1.75;;;;;;;-145.68;48.30;71537.47;10450461;28;20235;-73
2023/09/21 07:54:16;;;;;;;4.60;1.52;;;;;;;-145.68;47.35;71413.59;10450467;28;20236;-74
2023/09/21 07:59:16;;;;;;;2.33;1.95;;;;;;;-145.68;46.54;71487.50;10453480;28;20596;-74
2023/09/21 08:04:19;;;;;;;3.05;2.05;;;;;;;-145.68;45.09;71277.75;10449768;28;20230;-74
2023/09/21 08:09:20;;;;;;;6.35;2.13;;;;;;;-145.68;45.28;71273.75;10448814;28;20196;-74
2023/09/21 08:14:20;;;;;;;3.50;1.83;;;;;;;-145.68;40.94;70966.13;10450487;28;20188;-74
2023/09/21 08:19:21;;;;;;;8.17;1.70;;;;;;;-145.68;41.90;71105.97;10452143;28;20561;-74
2023/09/21 08:24:22;;;;;;;2.08;1.70;;;;;;;-145.68;40.33;70946.16;10449346;28;20479;-75
2023/09/21 08:29:22;;;;;;;4.18;1.75;;;;;;;-145.68;37.78;70684.50;10449116;28;20188;-75
2023/09/21 08:34:24;;;;;;;4.75;1.80;;;;;;;-145.68;38.13;70710.44;10433919;28;20631;-75
2023/09/21 08:39:24;;;;;;;6.35;2.05;;;;;;;-145.68;38.40;70726.44;10454528;28;20196;-75
2023/09/21 08:44:26;;;;;;;2.38;1.80;;;;;;;-145.68;37.63;70666.50;10445089;28;20687;-75
2023/09/21 08:49:28;;;;;;;6.03;2.13;;;;;;;-145.68;39.65;70826.31;10430043;28;20707;-74
2023/09/21 08:54:28;;;;;;;5.63;2.25;;;;;;;-145.68;41.26;70910.19;10450989;28;20184;-74
2023/09/21 08:59:29;;;;;;;4.82;2.00;;;;;;;-145.68;38.76;70826.31;10429790;28;20183;-75
2023/09/21 09:04:30;;;;;;;3.40;1.95;;;;;;;-145.68;35.80;70556.66;10447795;28;20316;-74
2023/09/21 09:09:30;;;;;;;3.00;1.95;;;;;;;-145.68;36.19;70644.53;10447224;28;20179;-74
2023/09/21 09:14:30;;;;;;;5.60;2.07;;;;;;;-145.68;36.50;70762.38;10432573;28;20192;-74
2023/09/21 09:19:31;;;;;;;7.20;1.60;;;;;;;-145.68;36.44;70610.59;10446703;28;20442;-75
2023/09/21 09:24:31;;;;;;;3.97;1.77;;;;;;;-145.68;37.94;70850.28;10447083;28;20238;-76
2023/09/21 09:29:33;;;;;;;4.57;1.90;;;;;;;-145.68;37.20;70706.47;10455971;28;20499;-75
2023/09/21 09:34:34;;;;;;;9.13;2.60;;;;;;;-145.68;37.94;70798.34;10454549;28;20446;-74
2023/09/21 09:39:35;;;;;;;4.18;1.92;;;;;;;-145.68;35.25;70750.41;10443626;28;20409;-74
2023/09/21 09:44:40;;;;;;;3.17;2.00;;;;;;;-145.68;36.01;70834.28;10428180;28;20282;-74
2023/09/21 09:49:44;;;;;;;2.28;2.03;;;;;;;-145.68;36.11;70796.34;10427896;28;20486;-74
2023/09/21 09:54:47;;;;;;;4.32;2.47;;;;;;;-145.68;38.57;71014.06;10449623;28;20223;-74
2023/09/21 09:59:47;;;;;;;3.97;2.22;;;;;;;-145.68;41.08;71125.94;10448647;28;20618;-74
2023/09/21 10:04:49;;;;;;;5.80;2.47;;;;;;;-145.68;42.23;71219.81;10448574;28;20226;-74
2023/09/21 10:09:49;;;;;;;4.43;3.00;;;;;;;-145.68;45.51;71317.72;10454336;28;20636;-74
2023/09/21 10:14:49;;;;;;;4.80;2.90;;;;;;;-145.68;43.24;71197.84;10439505;28;20199;-74
2023/09/21 10:19:51;;;;;;;7.25;3.42;;;;;;;-145.68;43.71;71203.84;10453938;28;20188;-74
2023/09/21 10:24:55;;;;;;;5.20;3.30;;;;;;;-145.68;43.00;71133.91;10454110;28;20274;-74
2023/09/21 10:30:06;;;;;;;5.20;3.78;;;;;;;-145.68;45.10;71335.69;10453621;28;20526;-74
2023/09/21 10:35:08;;;;;;;6.05;4.05;;;;;;;-145.68;45.83;71319.72;10456757;28;20192;-74
2023/09/21 10:40:20;;;;;;;7.15;4.82;;;;;;;-145.68;47.42;71365.66;10453427;28;20203;-74
2023/09/21 10:45:22;;;;;;;7.43;4.53;;;;;;;-145.68;46.14;71341.69;10451949;28;20192;-74
2023/09/21 10:50:24;;;;;;;7.57;4.93;;;;;;;-145.68;47.04;71395.63;10452612;28;20235;-74
2023/09/21 10:55:25;;;;;;;5.90;5.30;;;;;;;-145.68;48.02;71433.56;10438314;28;20875;-74
2023/09/21 11:00:27;;;;;;;5.88;5.05;;;;;;;-145.68;47.53;71327.69;10452451;28;20192;-74
2023/09/21 11:05:28;;;;;;;6.93;5.03;;;;;;;-145.68;46.80;71297.72;10448938;28;20207;-74
2023/09/21 11:10:28;;;;;;;7.57;5.30;;;;;;;-145.68;46.46;71213.81;10451890;28;20236;-74
2023/09/21 11:15:32;;;;;;;7.78;5.63;;;;;;;-145.68;47.24;71303.72;10454625;28;20187;-74
2023/09/21 11:20:32;;;;;;;6.20;4.82;;;;;;;-145.68;45.28;71209.84;10451522;28;20196;-75
2023/09/21 11:25:33;;;;;;;9.75;5.35;;;;;;;-145.68;45.73;71153.91;10451444;28;20656;-75
2023/09/21 11:30:37;;;;;;;5.60;4.93;;;;;;;-145.68;43.87;71097.97;10436383;28;20191;-75
2023/09/21 11:35:37;;;;;;;4.75;4.28;;;;;;;-145.68;41.35;70894.22;10451523;28;20577;-75
2023/09/21 11:40:38;;;;;;;4.85;4.35;;;;;;;-145.68;41.54;70894.22;10451132;28;20188;-75
2023/09/21 11:45:38;;;;;;;8.43;3.97;;;;;;;-145.68;38.46;70724.44;10433296;28;20196;-75
2023/09/21 11:50:41;;;;;;;7.35;3.30;;;;;;;-145.68;37.55;70650.53;10410777;28;20697;-74
2023/09/21 11:55:42;;;;;;;4.32;3.30;;;;;;;-145.68;36.87;70554.66;10409179;28;20195;-75
2023/09/21 12:00:44;;;;;;;5.63;3.37;;;;;;;-145.68;38.74;70820.31;10408503;28;20216;-74
2023/09/21 12:05:44;;;;;;;5.72;3.53;;;;;;;-145.68;41.12;70962.13;10408784;28;20831;-74
2023/09/21 12:10:46;;;;;;;6.35;3.60;;;;;;;-145.68;42.46;71034.03;10411009;28;20192;-74
2023/09/21 12:15:47;;;;;;;5.97;4.03;;;;;;;-145.68;43.23;71058.00;10407121;28;20280;-74
2023/09/21 12:20:56;;;;;;;3.83;3.50;;;;;;;-145.68;43.44;71119.94;10407951;28;20327;-75
2023/09/21 12:25:56;;;;;;;6.82;4.20;;;;;;;-145.68;44.35;71149.91;10404313;28;20193;-74
2023/09/21 12:30:57;;;;;;;8.02;4.13;;;;;;;-145.68;44.76;71185.88;10409527;28;20193;-74
2023/09/21 12:35:58;;;;;;;7.18;4.03;;;;;;;-145.68;44.65;71111.94;10407718;28;20203;-75
2023/09/21 12:41:00;;;;;;;7.13;4.32;;;;;;;-145.68;45.12;71107.94;10406826;28;20255;-74
2023/09/21 12:46:01;;;;;;;6.50;4.55;;;;;;;-145.68;44.70;71123.94;10406449;28;20281;-74
2023/09/21 12:51:03;;;;;;;5.80;4.80;;;;;;;-145.68;45.95;71221.81;10445966;28;20244;-74
2023/09/21 12:56:05;;;;;;;5.55;4.72;;;;;;;-145.68;45.75;71169.88;10448033;28;20203;-74
2023/09/21 13:01:05;;;;;;;6.85;5.10;;;;;;;-145.68;45.73;71239.81;10447474;28;20642;-74
2023/09/21 13:06:06;;;;;;;7.72;5.07;;;;;;;-145.68;46.78;71265.78;10450998;28;20222;-74
2023/09/21 13:11:06;;;;;;;7.53;4.45;;;;;;;-145.68;47.23;71269.75;10447018;28;20191;-74
2023/09/21 13:16:08;;;;;;;7.20;5.10;;;;;;;-145.68;47.37;71287.75;10447410;28;20192;-74
2023/09/21 13:21:10;;;;;;;9.90;5.30;;;;;;;-145.68;47.77;71289.75;10446988;28;20765;-75
2023/09/21 13:26:10;;;;;;;8.55;5.20;;;;;;;-145.68;48.45;71317.72;10450007;28;20191;-74
2023/09/21 13:31:11;;;;;;;8.18;4.68;;;;;;;-145.68;47.70;71233.81;10428640;28;20188;-74
2023/09/21 13:36:12;;;;;;;13.05;5.45;;;;;;;-145.68;47.04;71251.78;10446851;28;20195;-74
2023/09/21 13:41:13;;;;;;;15.77;6.47;;;;;;;-145.68;46.27;71227.81;10448560;28;20216;-74
2023/09/21 13:46:13;;;;;;;7.82;5.22;;;;;;;-145.68;46.30;71225.81;10449945;28;20200;-74
2023/09/21 13:51:13;;;;;;;8.82;5.05;;;;;;;-145.68;46.81;71217.81;10427434;28;20726;-75
2023/09/21 13:56:14;;;;;;;7.63;4.38;;;;;;;-145.68;45.05;71078.00;10446644;28;20596;-74
2023/09/21 14:01:15;;;;;;;12.07;4.85;;;;;;;-145.68;45.98;71151.91;10445638;28;20370;-74
2023/09/21 14:06:16;;;;;;;9.38;5.03;;;;;;;-145.68;47.07;71225.81;10438286;28;20648;-74
2023/09/21 14:11:16;;;;;;;12.30;5.15;;;;;;;-145.68;46.81;71223.81;10445842;28;20187;-74
2023/09/21 14:16:17;;;;;;;9.88;5.18;;;;;;;-145.68;46.81;71217.81;10446085;28;20191;-75
2023/09/21 14:21:17;;;;;;;8.95;6.07;;;;;;;-145.68;48.52;71299.72;10448026;28;20218;-74
2023/09/21 14:26:17;;;;;;;8.70;5.30;;;;;;;-145.68;48.50;71269.75;10428534;28;20647;-75
2023/09/21 14:31:19;;;;;;;7.30;4.95;;;;;;;-145.68;46.66;71189.84;10445229;28;20214;-74
2023/09/21 14:36:19;;;;;;;10.85;5.43;;;;;;;-145.68;46.38;71209.84;10445210;28;20188;-75
2023/09/21 14:41:19;;;;;;;9.30;5.20;;;;;;;-145.68;48.06;71277.75;10448373;28;20231;-74
2023/09/21 14:46:21;;;;;;;9.85;5.40;;;;;;;-145.68;47.49;71195.84;10444572;28;20749;-74
2023/09/21 14:51:21;;;;;;;11.43;6.22;;;;;;;-145.68;47.17;71179.88;10447229;28;20652;-75
2023/09/21 14:56:21;;;;;;;11.77;5.68;;;;;;;-145.68;46.16;71107.94;10453384;28;20199;-75
2023/09/21 15:01:22;;;;;;;11.13;5.78;;;;;;;-145.68;44.42;71010.06;10455297;28;20700;-75
2023/09/21 15:06:22;;;;;;;7.22;5.35;;;;;;;-145.68;44.16;70960.13;10452329;28;20558;-74
2023/09/21 15:11:23;;;;;;;9.85;5.90;;;;;;;-145.68;45.12;71042.03;10451735;28;20190;-75
2023/09/21 15:16:24;;;;;;;8.98;5.13;;;;;;;-145.68;44.10;70990.09;10450808;28;20180;-75
2023/09/21 15:21:24;;;;;;;10.80;5.47;;;;;;;-145.68;43.29;70946.16;10451417;28;20204;-74
2023/09/21 15:26:24;;;;;;;9.40;5.20;;;;;;;-145.68;44.69;71018.06;10452221;28;20215;-75
2023/09/21 15:31:25;;;;;;;12.23;5.55;;;;;;;-145.68;43.42;70950.16;10450935;28;20195;-75
2023/09/21 15:36:25;;;;;;;7.93;4.93;;;;;;;-145.68;45.27;71089.97;10461149;28;20253;-74
2023/09/21 15:41:26;;;;;;;8.77;4.80;;;;;;;-145.68;46.68;71221.81;10451191;28;20718;-74
2023/09/21 15:46:27;;;;;;;9.85;5.88;;;;;;;-145.68;48.43;71285.75;10447237;28;20188;-76
2023/09/21 15:51:27;;;;;;;8.38;5.90;;;;;;;-145.68;48.09;71287.75;10445987;28;20719;-75
2023/09/21 15:56:27;;;;;;;6.65;5.60;;;;;;;-145.68;49.54;71343.69;10453653;28;20188;-74
2023/09/21 16:01:28;;;;;;;9.65;5.63;;;;;;;-145.68;52.01;71485.53;10450339;28;20219;-74
2023/09/21 16:06:28;;;;;;;18.40;7.07;;;;;;;-145.68;55.58;71625.38;10431885;28;20203;-73
2023/09/21 16:11:28;;;;;;;12.73;6.80;;;;;;;-145.68;56.88;71635.34;10449537;28;20200;-74
2023/09/21 16:16:29;;;;;;;9.73;6.85;;;;;;;-145.68;59.62;71683.31;10452360;28;20200;-73
2023/09/21 16:21:32;;;;;;;11.07;7.03;;;;;;;-145.68;60.99;71705.28;10449058;28;20288;-74
2023/09/21 16:26:32;;;;;;;11.70;7.00;;;;;;;-145.68;61.79;71685.31;10449443;28;20609;-74
2023/09/21 16:31:33;;;;;;;11.25;7.47;;;;;;;-145.68;63.62;71733.25;10451493;28;20564;-74
2023/09/21 16:36:33;;;;;;;11.35;7.53;;;;;;;-145.68;65.11;71749.22;10448833;28;20199;-74
2023/09/21 16:41:35;;;;;;;10.68;7.28;;;;;;;-145.68;65.03;71725.25;10448557;28;20342;-74
2023/09/21 16:46:35;;;;;;;9.48;7.28;;;;;;;-145.68;65.35;71725.25;10447480;28;20200;-74
2023/09/21 16:51:35;;;;;;;15.95;7.30;;;;;;;-145.68;66.18;71735.25;10451421;28;20192;-74
2023/09/21 16:56:36;;;;;;;11.25;7.45;;;;;;;-145.68;68.10;71767.22;10447895;28;20215;-75
2023/09/21 17:01:36;;;;;;;13.55;7.35;;;;;;;-145.68;71.22;71823.16;10447380;28;20215;-74
2023/09/21 17:06:37;;;;;;;15.05;7.85;;;;;;;-145.68;72.34;71839.16;10429676;28;20199;-74
2023/09/21 17:11:37;;;;;;;13.13;8.05;;;;;;;-145.68;75.85;71879.09;10432728;28;20191;-74
2023/09/21 17:16:38;;;;;;;12.20;7.78;;;;;;;-145.68;77.12;71893.09;10446692;28;20613;-74
2023/09/21 17:21:39;;;;;;;15.57;8.43;;;;;;;-145.68;78.68;71909.06;10446589;28;20267;-74
2023/09/21 17:26:40;;;;;;;15.80;7.68;;;;;;;-145.68;78.78;71901.09;10447418;28;20211;-73
2023/09/21 17:31:41;;;;;;;11.32;7.88;;;;;;;-145.68;79.26;71909.06;10448974;28;20217;-74
2023/09/21 17:36:41;;;;;;;13.85;8.43;;;;;;;-145.68;80.16;71913.06;10446778;28;20268;-74
2023/09/21 17:41:41;;;;;;;12.95;7.70;;;;;;;-145.68;81.02;71925.06;10446227;28;20222;-74
2023/09/21 17:46:42;;;;;;;10.80;7.10;;;;;;;-145.68;82.30;71935.03;10445800;28;20196;-74
2023/09/21 17:51:42;;;;;;;11.68;8.40;;;;;;;-145.68;82.47;71929.06;10448975;28;20191;-74
2023/09/21 17:56:43;;;;;;;11.60;8.18;;;;;;;-145.68;82.64;71931.06;10428433;28;20196;-74
2023/09/21 18:01:43;;;;;;;18.00;10.25;;;;;;;-145.68;83.60;71947.03;10445515;28;20230;-74
2023/09/21 18:06:44;;;;;;;15.63;8.45;;;;;;;-145.68;83.08;71927.06;10449093;28;20583;-73
2023/09/21 18:11:45;;;;;;;11.35;7.80;;;;;;;-145.68;82.51;71917.06;10446043;28;20187;-74
2023/09/21 18:16:47;;;;;;;13.23;7.50;;;;;;;-145.68;82.55;71913.06;10427573;28;20217;-73
2023/09/21 18:21:47;;;;;;;12.50;7.97;;;;;;;-145.68;82.18;71915.06;10445451;28;20775;-74
2023/09/21 18:26:48;;;;;;;26.95;19.38;;;;;;;-145.68;81.51;71897.09;10434463;28;20202;-73
2023/09/21 18:31:48;;;;;;;12.88;6.65;;;;;;;-145.68;81.43;71897.09;10453574;28;20187;-74
2023/09/21 18:36:49;;;;;;;17.15;6.93;;;;;;;-145.68;80.89;71889.09;10435734;28;20188;-74
2023/09/21 18:41:49;;;;;;;8.32;5.88;;;;;;;-145.68;80.20;71867.13;10452688;28;20215;-74
2023/09/21 18:46:50;;;;;;;10.07;7.00;;;;;;;-145.68;79.95;71863.13;10438456;28;20239;-74
2023/09/21 18:51:51;;;;;;;12.73;7.30;;;;;;;-145.68;79.99;71863.13;10452822;28;20184;-74
2023/09/21 18:56:51;;;;;;;13.60;6.57;;;;;;;-145.68;80.33;71859.13;10452888;28;20196;-74
2023/09/21 19:01:52;;;;;;;8.07;6.22;;;;;;;-145.68;79.78;71853.13;10434473;28;20227;-74
2023/09/21 19:06:52;;;;;;;10.02;6.70;;;;;;;-145.68;77.82;71809.16;10437837;28;20334;-73
2023/09/21 19:11:52;;;;;;;7.65;5.45;;;;;;;-145.68;76.84;71801.19;10451653;28;20196;-74
2023/09/21 19:16:55;;;;;;;10.75;5.97;;;;;;;-145.68;76.85;71801.19;10452198;28;20223;-74
2023/09/21 19:21:56;;;;;;;10.75;5.47;;;;;;;-145.68;75.73;71781.19;10454744;28;20228;-74
2023/09/21 19:26:57;;;;;;;10.82;6.25;;;;;;;-145.68;75.36;71781.19;10448065;28;20196;-73
2023/09/21 19:31:57;;;;;;;13.50;6.65;;;;;;;-145.68;75.44;71771.22;10451110;28;20188;-74
2023/09/21 19:36:58;;;;;;;12.13;5.93;;;;;;;-145.68;74.98;71765.22;10433279;28;20214;-73
2023/09/21 19:41:58;;;;;;;15.13;5.93;;;;;;;-145.68;75.21;71767.22;10451325;28;20216;-73
2023/09/21 19:46:59;;;;;;;12.02;6.20;;;;;;;-145.68;75.15;71765.22;10449028;28;20232;-73
2023/09/21 19:51:59;;;;;;;9.70;5.82;;;;;;;-145.68;74.70;71753.22;10450599;28;20191;-74
2023/09/21 19:56:59;;;;;;;13.02;6.47;;;;;;;-145.68;74.59;71761.22;10432729;28;20731;-73
2023/09/21 20:02:00;;;;;;;7.72;5.95;;;;;;;-145.68;73.92;71755.22;10453331;28;20220;-74
2023/09/21 20:07:00;;;;;;;9.27;5.60;;;;;;;-145.68;72.97;71731.25;10450153;28;20208;-74
2023/09/21 20:12:00;;;;;;;10.55;6.00;;;;;;;-145.68;72.79;71731.25;10449908;28;20202;-73
2023/09/21 20:17:01;;;;;;;8.38;5.65;;;;;;;-145.68;72.79;71725.25;10446350;28;20245;-74
2023/09/21 20:22:03;;;;;;;13.98;5.43;;;;;;;-145.68;72.56;71725.25;10449979;28;20220;-73
2023/09/21 20:27:03;;;;;;;7.00;4.82;;;;;;;-145.68;72.35;71717.28;10449377;28;20192;-74
2023/09/21 20:32:05;;;;;;;7.72;4.80;;;;;;;-145.68;71.83;71721.25;10424856;28;20234;-73
2023/09/21 20:37:06;;;;;;;9.45;5.38;;;;;;;-145.68;71.44;71711.28;10434720;28;20214;-74
2023/09/21 20:42:06;;;;;;;8.65;5.68;;;;;;;-145.68;71.16;71717.28;10448137;28;20698;-74
2023/09/21 20:47:07;;;;;;;8.90;4.78;;;;;;;-145.68;70.88;71699.28;10443526;28;20351;-73
2023/09/21 20:52:07;;;;;;;7.68;4.93;;;;;;;-145.68;70.82;71701.28;10404832;28;20227;-74
2023/09/21 20:57:08;;;;;;;12.40;4.97;;;;;;;-145.68;70.56;71697.28;10410495;28;20208;-74
2023/09/21 21:02:10;;;;;;;7.43;5.20;;;;;;;-145.68;70.71;71709.28;10406627;28;20224;-74
2023/09/21 21:07:11;;;;;;;9.50;5.00;;;;;;;-145.68;70.13;71687.31;10405904;28;20379;-74
2023/09/21 21:12:11;;;;;;;8.32;4.53;;;;;;;-145.68;70.00;71695.28;10402728;28;20234;-74
2023/09/21 21:17:12;;;;;;;8.98;4.97;;;;;;;-145.68;69.50;71687.31;10404793;28;20205;-74
2023/09/21 21:22:12;;;;;;;14.10;4.40;;;;;;;-145.68;68.22;71671.31;10405486;28;20677;-73
2023/09/21 21:27:12;;;;;;;10.75;4.80;;;;;;;-145.68;67.91;71653.34;10405749;28;20196;-74
2023/09/21 21:32:13;;;;;;;8.85;4.25;;;;;;;-145.68;68.28;71649.34;10408701;28;20648;-73
2023/09/21 21:37:13;;;;;;;8.77;5.00;;;;;;;-145.68;68.30;71649.34;10403708;28;20200;-73
2023/09/21 21:42:14;;;;;;;8.90;3.92;;;;;;;-145.68;68.49;71637.34;10405548;28;20250;-73
2023/09/21 21:47:15;;;;;;;8.02;4.38;;;;;;;-145.68;67.70;71621.38;10411783;28;20296;-74
2023/09/21 21:52:15;;;;;;;5.85;4.07;;;;;;;-145.68;66.97;71601.41;10432063;28;20202;-73
2023/09/21 21:57:15;;;;;;;7.35;4.20;;;;;;;-145.68;67.39;71611.38;10446223;28;20188;-73
2023/09/21 22:02:16;;;;;;;7.13;4.40;;;;;;;-145.68;67.68;71613.38;10446246;28;20228;-73
2023/09/21 22:07:16;;;;;;;10.00;4.40;;;;;;;-145.68;67.85;71617.38;10446065;28;20200;-73
2023/09/21 22:12:18;;;;;;;6.30;3.80;;;;;;;-145.68;68.32;71633.34;10448296;28;20199;-73
2023/09/21 22:17:19;;;;;;;13.05;4.60;;;;;;;-145.68;68.49;71637.34;10445847;28;20299;-73
2023/09/21 22:22:21;;;;;;;7.40;4.35;;;;;;;-145.68;68.87;71637.34;10445097;28;20298;-73
2023/09/21 22:27:21;;;;;;;8.43;3.70;;;;;;;-145.68;69.30;71645.34;10445688;28;20192;-74
2023/09/21 22:32:22;;;;;;;8.10;3.72;;;;;;;-145.68;68.78;71615.38;10452688;28;20681;-73
2023/09/21 22:37:22;;;;;;;7.93;4.18;;;;;;;-145.68;68.69;71629.38;10445091;28;20195;-73
2023/09/21 22:42:23;;;;;;;8.50;4.25;;;;;;;-145.68;68.17;71625.38;10445390;28;20695;-73